Time;durP1;ratioP1;P1;durP2;ratioP2;P2;SDS_P1;SDS_P2;PMS_P1;PMS_P2;Temp;Humidity;BMP_temperature;BMP_pressure;BME280_temperature;BME280_humidity;BME280_pressure;Samples;Min_cycle;Max_cycle;Signal;HPM_P1;HPM_P2
2021/03/07 00:00:37;;;;;;;3.30;3.00;;;9.40;78.50;;;11.37;45.08;102388.53;4970426;27;100445;-52
2021/03/07 00:03:03;;;;;;;4.07;2.73;;;9.40;77.60;;;11.43;46.72;102388.47;4972294;27;101579;-53
2021/03/07 00:05:29;;;;;;;7.07;4.70;;;9.50;82.00;;;11.41;43.27;102384.94;4969218;27;97696;-52
2021/03/07 00:07:55;;;;;;;5.13;3.00;;;9.50;77.30;;;11.42;45.62;102386.69;4956399;27;97775;-54
2021/03/07 00:10:22;;;;;;;3.70;2.23;;;9.40;77.70;;;11.39;46.55;102385.84;4972548;28;99036;-53
2021/03/07 00:12:51;;;;;;;5.33;3.43;;;9.40;79.00;;;11.39;45.04;102391.16;4971092;27;106089;-55
2021/03/07 00:15:19;;;;;;;8.90;5.70;;;9.40;77.60;;;11.32;44.64;102379.78;4971798;27;97484;-52
2021/03/07 00:17:47;;;;;;;4.13;3.00;;;9.30;77.40;;;11.30;46.70;102389.50;4945323;28;103037;-55
2021/03/07 00:20:17;;;;;;;4.07;3.10;;;9.20;79.10;;;11.36;45.86;102391.19;4982278;27;98606;-56
2021/03/07 00:22:44;;;;;;;8.43;5.20;;;9.40;77.10;;;11.25;44.01;102388.66;4958056;27;98999;-52
2021/03/07 00:25:11;;;;;;;4.10;3.00;;;9.30;77.50;;;11.38;46.46;102389.41;4961528;27;97610;-53
2021/03/07 00:27:38;;;;;;;4.60;3.20;;;9.40;80.20;;;11.31;45.94;102388.59;4986571;27;96881;-54
2021/03/07 00:30:12;;;;;;;3.40;2.80;;;9.30;78.40;;;11.44;46.04;102390.22;4975973;27;101670;-49
2021/03/07 00:32:39;;;;;;;3.50;3.10;;;9.50;79.20;;;11.38;45.08;102390.28;4982689;27;100720;-52
2021/03/07 00:35:06;;;;;;;4.50;3.70;;;9.40;77.10;;;11.37;45.09;102393.81;4955183;27;100113;-49
2021/03/07 00:37:32;;;;;;;3.80;3.20;;;9.40;78.10;;;11.19;44.03;102388.72;4971724;27;98410;-50
2021/03/07 00:39:58;;;;;;;5.20;3.80;;;9.20;77.10;;;11.14;43.36;102385.25;4955420;27;97730;-51
2021/03/07 00:42:24;;;;;;;5.87;3.50;;;9.00;78.00;;;11.08;44.11;102385.31;4980430;27;97350;-54
2021/03/07 00:44:51;;;;;;;5.27;3.27;;;9.00;78.10;;;10.87;44.53;102383.78;4952880;27;111947;-53
2021/03/07 00:47:16;;;;;;;3.23;2.27;;;8.80;77.90;;;11.02;46.26;102386.28;4967233;28;99439;-52
2021/03/07 00:49:43;;;;;;;5.00;3.37;;;8.90;80.00;;;10.88;43.14;102386.41;4958982;27;98210;-53
2021/03/07 00:52:09;;;;;;;4.47;3.23;;;8.90;77.50;;;10.75;45.00;102392.69;4953838;27;99733;-51
2021/03/07 00:54:35;;;;;;;4.87;3.90;;;8.70;78.70;;;10.73;43.26;102390.06;4959260;27;98565;-53
2021/03/07 00:57:01;;;;;;;2.90;2.40;;;8.70;78.40;;;10.81;46.76;102387.34;4962450;27;97194;-52
2021/03/07 00:59:27;;;;;;;4.57;2.93;;;8.70;80.50;;;10.75;44.99;102387.41;4958518;28;98721;-50
2021/03/07 01:01:52;;;;;;;3.17;2.63;;;8.70;78.80;;;10.76;46.87;102383.00;4966887;27;98034;-52
2021/03/07 01:04:18;;;;;;;3.57;2.73;;;8.60;79.90;;;10.70;46.34;102390.09;4975004;27;98671;-52
2021/03/07 01:06:45;;;;;;;3.13;2.63;;;8.60;80.00;;;10.70;47.16;102381.28;4986371;27;99421;-53
2021/03/07 01:09:11;;;;;;;4.27;3.00;;;8.50;81.30;;;10.73;46.16;102381.28;4960662;27;100578;-53
2021/03/07 01:11:37;;;;;;;4.60;3.30;;;8.60;80.70;;;10.73;45.41;102373.34;4961487;28;99158;-49
2021/03/07 01:14:05;;;;;;;3.50;2.87;;;8.70;79.80;;;10.58;45.97;102379.66;4987631;27;99823;-52
2021/03/07 01:16:31;;;;;;;3.67;3.00;;;8.50;78.70;;;10.71;46.84;102375.13;4984175;27;97548;-52
2021/03/07 01:18:57;;;;;;;2.60;2.40;;;8.60;80.70;;;10.75;47.76;102371.56;4965014;28;100571;-52
2021/03/07 01:21:23;;;;;;;5.00;4.07;;;8.60;80.80;;;10.69;45.27;102372.47;4978712;27;98651;-49
2021/03/07 01:23:49;;;;;;;5.53;4.20;;;8.70;79.00;;;10.66;44.95;102371.66;4953759;27;97075;-53
2021/03/07 01:26:15;;;;;;;12.80;6.60;;;8.60;78.40;;;10.46;42.65;102369.19;4964466;27;97934;-53
2021/03/07 01:28:40;;;;;;;9.80;5.83;;;8.40;78.40;;;10.35;45.55;102366.63;4987444;27;99194;-51
2021/03/07 01:31:06;;;;;;;6.43;4.37;;;8.30;79.30;;;10.14;45.43;102366.75;4975252;27;97517;-50
2021/03/07 01:33:32;;;;;;;4.57;3.80;;;8.20;78.90;;;10.11;46.72;102361.47;4967760;27;97562;-50
2021/03/07 01:36:04;;;;;;;5.60;4.00;;;8.00;79.40;;;10.32;47.73;102361.38;4971419;27;97035;-51
2021/03/07 01:38:31;;;;;;;4.60;3.03;;;8.20;80.80;;;10.37;48.48;102370.13;4985268;27;98483;-50
2021/03/07 01:40:58;;;;;;;5.10;3.23;;;8.20;81.30;;;10.54;48.25;102361.19;4957981;27;98467;-52
2021/03/07 01:43:25;;;;;;;5.97;3.53;;;8.50;81.20;;;10.54;45.51;102353.28;4965377;27;98465;-52
2021/03/07 01:45:52;;;;;;;4.93;3.83;;;8.50;79.80;;;10.41;46.99;102348.13;4978795;27;98696;-52
2021/03/07 01:48:18;;;;;;;3.07;2.53;;;8.40;79.30;;;10.63;48.58;102350.56;4978544;27;97741;-51
2021/03/07 01:50:51;;;;;;;3.13;2.40;;;8.60;85.60;;;10.83;48.05;102345.97;4968052;27;98367;-53
2021/03/07 01:53:18;;;;;;;6.43;3.87;;;9.00;86.10;;;10.78;46.02;102347.78;4959743;27;98938;-54
2021/03/07 01:55:46;;;;;;;6.03;3.93;;;8.90;77.50;;;10.64;45.60;102355.81;4968123;27;97996;-51
2021/03/07 01:58:19;;;;;;;6.67;5.27;;;8.70;78.30;;;10.75;46.34;102347.81;4971272;27;98881;-51
2021/03/07 02:00:47;;;;;;;3.20;2.60;;;8.60;79.00;;;10.87;46.95;102345.06;4953968;27;103082;-51
2021/03/07 02:03:13;;;;;;;3.77;2.70;;;8.90;79.20;;;10.95;47.37;102343.19;4971964;27;97722;-49
2021/03/07 02:05:39;;;;;;;6.37;3.20;;;9.00;80.50;;;11.01;47.31;102340.50;4970429;28;97056;-52
2021/03/07 02:08:06;;;;;;;4.13;3.10;;;9.10;80.10;;;11.02;47.00;102339.63;4948424;27;99270;-49
2021/03/07 02:10:43;;;;;;;3.80;2.83;;;9.10;78.60;;;11.06;46.73;102334.28;4967846;27;97408;-51
2021/03/07 02:13:13;;;;;;;5.13;3.47;;;9.10;78.40;;;11.06;46.44;102329.00;4962758;27;98389;-51
2021/03/07 02:15:43;;;;;;;5.17;4.37;;;9.10;78.20;;;10.88;44.98;102325.69;4971418;27;98738;-48
2021/03/07 02:18:10;;;;;;;5.73;4.57;;;8.80;77.40;;;11.01;46.10;102326.44;4964882;27;99908;-52
2021/03/07 02:20:46;;;;;;;4.27;3.50;;;8.90;79.90;;;10.87;44.15;102318.66;4965404;28;97808;-53
2021/03/07 02:23:19;;;;;;;4.37;3.60;;;8.80;77.90;;;10.68;44.29;102322.34;4957299;28;99846;-53
2021/03/07 02:25:45;;;;;;;4.97;3.40;;;8.60;77.60;;;10.78;46.02;102313.47;4982072;27;99012;-52
2021/03/07 02:28:11;;;;;;;4.33;3.17;;;8.60;78.30;;;10.81;46.80;102307.28;4959425;27;99763;-52
2021/03/07 02:30:38;;;;;;;3.30;2.50;;;8.70;79.60;;;10.77;47.49;102311.72;4971795;28;98021;-49
2021/03/07 02:33:32;;;;;;;3.47;2.50;;;8.60;80.10;;;10.96;47.20;102297.41;4959871;27;98714;-57
2021/03/07 02:36:12;;;;;;;5.47;4.50;;;9.10;83.40;;;11.00;46.81;102299.16;4953260;28;97771;-50
2021/03/07 02:38:40;;;;;;;3.13;2.57;;;9.10;80.40;;;11.06;46.83;102297.31;4976477;27;102757;-51
2021/03/07 02:41:08;;;;;;;6.60;5.00;;;9.10;80.50;;;10.85;43.10;102296.69;4965703;27;100297;-52
2021/03/07 02:43:39;;;;;;;8.40;5.30;;;8.90;76.50;;;10.72;44.51;102305.63;4958340;27;98831;-51
2021/03/07 02:46:08;;;;;;;8.00;5.90;;;8.70;76.80;;;10.43;42.44;102296.22;4979709;27;99162;-52
2021/03/07 02:48:35;;;;;;;4.33;3.93;;;8.50;77.20;;;10.41;46.59;102294.44;4964673;27;98019;-48
2021/03/07 02:51:04;;;;;;;3.90;3.50;;;8.20;79.00;;;10.55;47.54;102296.97;4951196;27;98461;-51
2021/03/07 02:53:33;;;;;;;7.03;4.63;;;8.40;81.30;;;10.61;46.61;102294.28;4965082;28;98120;-53
2021/03/07 02:56:05;;;;;;;9.00;5.83;;;8.50;79.40;;;10.31;41.55;102296.31;4953012;27;96895;-52
2021/03/07 02:58:33;;;;;;;9.63;6.07;;;8.30;76.40;;;10.04;45.09;102297.38;4964409;27;102674;-49
2021/03/07 03:01:04;;;;;;;4.27;2.97;;;8.00;79.20;;;10.03;48.32;102294.75;4963629;28;100249;-49
2021/03/07 03:03:34;;;;;;;6.97;4.40;;;7.80;80.20;;;10.04;47.44;102293.88;4965216;27;98004;-48
2021/03/07 03:06:03;;;;;;;4.47;3.40;;;7.80;80.90;;;10.26;48.67;102292.81;4968588;27;97644;-49
2021/03/07 03:08:32;;;;;;;3.77;3.20;;;8.20;83.80;;;10.37;48.37;102284.81;4969057;27;102346;-51
2021/03/07 03:11:00;;;;;;;3.43;2.60;;;8.30;81.40;;;10.56;48.07;102286.44;4961657;27;98331;-50
2021/03/07 03:13:26;;;;;;;3.83;3.30;;;8.80;90.30;;;10.84;47.55;102276.41;4967610;27;100589;-48
2021/03/07 03:15:54;;;;;;;4.07;3.07;;;9.50;92.10;;;11.06;46.84;102270.91;4977640;27;98969;-49
2021/03/07 03:18:21;;;;;;;5.53;3.40;;;9.80;82.10;;;11.17;46.79;102269.03;4965940;27;98851;-52
2021/03/07 03:20:56;;;;;;;3.40;3.00;;;9.70;78.30;;;11.22;46.23;102265.41;4963149;28;101045;-52
2021/03/07 03:23:23;;;;;;;4.60;3.20;;;9.60;76.70;;;11.18;46.02;102273.41;4948752;27;100413;-53
2021/03/07 03:25:51;;;;;;;6.30;4.60;;;9.40;76.50;;;11.23;45.96;102272.44;4960639;27;97129;-51
2021/03/07 03:28:19;;;;;;;4.13;3.00;;;9.40;77.80;;;11.24;46.55;102260.97;4966677;27;98859;-49
2021/03/07 03:30:45;;;;;;;4.07;3.30;;;9.30;81.50;;;11.30;45.94;102265.34;4976258;27;97654;-48
2021/03/07 03:33:11;;;;;;;5.57;3.87;;;9.50;77.70;;;11.16;45.81;102262.00;4982891;27;98422;-52
2021/03/07 03:35:38;;;;;;;5.77;5.13;;;9.20;76.60;;;11.12;45.61;102262.91;4961977;27;99621;-49
2021/03/07 03:38:04;;;;;;;4.97;4.47;;;9.10;76.80;;;11.02;45.66;102264.81;4984359;27;99164;-52
2021/03/07 03:40:32;;;;;;;6.13;5.20;;;8.80;77.50;;;10.94;43.60;102264.88;4986328;27;97566;-49
2021/03/07 03:43:04;;;;;;;5.83;5.23;;;8.80;75.70;;;10.71;44.89;102269.56;4963591;27;97533;-53
2021/03/07 03:45:33;;;;;;;6.83;4.87;;;8.50;77.40;;;10.80;46.46;102258.88;4959774;28;98174;-48
2021/03/07 03:48:04;;;;;;;5.30;4.27;;;8.50;78.40;;;10.54;45.48;102263.56;4975566;27;98873;-52
2021/03/07 03:50:31;;;;;;;4.50;4.10;;;8.30;77.40;;;10.49;46.90;102254.81;4965020;27;98798;-52
2021/03/07 03:53:00;;;;;;;6.00;4.40;;;8.20;79.60;;;10.66;46.70;102256.38;4977526;27;97133;-52
2021/03/07 03:55:29;;;;;;;4.90;4.40;;;8.50;81.20;;;10.43;45.79;102251.38;4964881;27;98522;-52
2021/03/07 03:58:05;;;;;;;6.00;4.90;;;8.30;77.40;;;10.31;45.64;102247.97;4987719;27;101780;-48
2021/03/07 04:00:37;;;;;;;5.90;4.50;;;8.10;78.20;;;10.24;47.33;102254.16;4972858;27;99137;-49
2021/03/07 04:03:05;;;;;;;9.83;5.97;;;7.90;80.00;;;10.05;44.76;102261.34;4988998;27;97115;-50
2021/03/07 04:05:31;;;;;;;7.10;6.00;;;7.80;78.50;;;10.12;48.06;102263.03;4986794;28;96994;-50
2021/03/07 04:07:59;;;;;;;6.80;5.13;;;7.90;81.00;;;10.21;47.87;102257.72;5005070;27;100496;-49
2021/03/07 04:10:26;;;;;;;5.97;4.30;;;8.00;80.30;;;10.23;47.56;102257.69;5003741;27;97194;-50
2021/03/07 04:12:56;;;;;;;4.97;4.40;;;8.10;80.30;;;10.31;47.13;102263.78;4989595;27;98059;-48
2021/03/07 04:15:23;;;;;;;5.97;4.33;;;8.20;80.10;;;10.23;46.87;102250.66;5011136;27;98004;-50
2021/03/07 04:17:50;;;;;;;5.03;4.53;;;8.10;79.40;;;10.14;46.29;102256.00;4986351;28;99280;-50
2021/03/07 04:20:17;;;;;;;5.47;4.30;;;8.00;79.30;;;10.02;45.55;102261.38;4992663;28;97510;-50
2021/03/07 04:22:43;;;;;;;6.60;5.67;;;7.90;78.90;;;9.79;44.30;102265.03;4988237;28;100642;-48
2021/03/07 04:25:10;;;;;;;6.43;5.83;;;7.70;79.20;;;9.62;44.80;102253.75;4997763;27;99817;-48
2021/03/07 04:27:36;;;;;;;6.70;6.00;;;7.50;79.10;;;9.71;48.22;102261.59;4976952;27;102941;-50
2021/03/07 04:30:07;;;;;;;4.17;3.67;;;7.50;81.10;;;9.73;47.83;102257.19;4984601;27;97601;-49
2021/03/07 04:32:34;;;;;;;5.17;3.60;;;7.60;79.90;;;9.81;49.78;102255.34;5005476;27;97022;-49
2021/03/07 04:35:03;;;;;;;3.43;3.13;;;7.60;83.30;;;9.82;48.58;102254.47;4972786;27;98135;-52
2021/03/07 04:37:29;;;;;;;4.50;3.47;;;7.60;81.10;;;9.99;49.45;102256.13;4993794;27;100744;-50
2021/03/07 04:39:55;;;;;;;4.03;3.50;;;7.90;84.60;;;9.98;47.77;102249.06;4991363;27;100227;-48
2021/03/07 04:42:22;;;;;;;4.03;3.63;;;7.90;80.30;;;10.04;47.87;102243.78;4990277;28;97733;-49
2021/03/07 04:44:49;;;;;;;6.23;4.03;;;7.90;80.80;;;10.01;48.04;102243.81;5002256;27;99046;-50
2021/03/07 04:47:15;;;;;;;4.10;3.70;;;7.80;79.50;;;10.15;48.93;102244.56;4996501;27;98871;-49
2021/03/07 04:49:40;;;;;;;4.23;3.50;;;8.00;82.90;;;10.22;48.34;102248.91;4985446;28;100150;-48
2021/03/07 04:52:07;;;;;;;3.33;2.67;;;8.10;79.90;;;10.35;48.54;102244.41;4998842;27;98444;-50
2021/03/07 04:54:33;;;;;;;4.00;3.53;;;8.30;84.60;;;10.41;46.96;102245.22;4980394;27;99634;-52
2021/03/07 04:57:03;;;;;;;3.23;2.90;;;8.50;78.70;;;10.31;47.16;102243.56;4995235;27;99224;-56
2021/03/07 04:59:30;;;;;;;4.47;3.63;;;8.20;78.90;;;10.31;47.56;102233.00;5003301;27;99272;-48
2021/03/07 05:01:56;;;;;;;3.47;2.87;;;8.10;80.00;;;10.48;47.89;102226.69;4996607;27;97358;-53
2021/03/07 05:04:22;;;;;;;2.93;2.57;;;8.40;83.10;;;10.64;47.81;102230.91;4988166;27;98274;-51
2021/03/07 05:06:48;;;;;;;3.43;2.83;;;8.90;91.40;;;10.82;47.26;102230.69;4988323;27;100665;-52
2021/03/07 05:09:13;;;;;;;4.13;3.07;;;9.30;86.30;;;10.94;46.92;102229.69;4987894;27;99224;-56
2021/03/07 05:11:39;;;;;;;4.20;3.13;;;9.40;79.30;;;10.99;45.38;102223.47;5006195;27;98710;-53
2021/03/07 05:14:05;;;;;;;3.37;3.07;;;9.30;75.80;;;11.02;46.24;102223.41;5004108;27;97187;-51
2021/03/07 05:16:33;;;;;;;5.10;2.97;;;9.20;76.20;;;11.02;46.81;102214.63;4977870;27;100499;-51
2021/03/07 05:18:59;;;;;;;3.60;2.90;;;9.20;82.80;;;11.14;46.51;102216.22;5002025;27;97050;-50
2021/03/07 05:21:25;;;;;;;3.97;2.87;;;9.50;84.20;;;11.26;46.29;102209.00;4994980;27;97452;-50
2021/03/07 05:23:54;;;;;;;2.67;2.40;;;9.90;81.60;;;11.39;45.87;102201.78;5002388;27;103114;-53
2021/03/07 05:26:21;;;;;;;3.40;2.90;;;10.00;85.70;;;11.52;45.68;102200.69;4980916;27;97559;-52
2021/03/07 05:28:47;;;;;;;3.60;2.83;;;10.30;88.10;;;11.73;45.20;102193.34;4992464;28;99058;-51
2021/03/07 05:31:13;;;;;;;3.30;3.00;;;10.80;83.00;;;11.84;44.94;102199.34;5001133;27;97981;-49
2021/03/07 05:33:39;;;;;;;4.67;3.57;;;10.70;80.00;;;11.77;42.81;102200.31;4989815;27;97216;-50
2021/03/07 05:36:06;;;;;;;6.53;4.93;;;10.40;71.10;;;11.53;43.31;102199.78;4993778;27;97347;-49
2021/03/07 05:38:32;;;;;;;6.37;4.57;;;9.80;72.70;;;11.35;43.33;102197.44;4994461;28;99201;-49
2021/03/07 05:40:58;;;;;;;3.53;3.17;;;9.30;73.80;;;11.22;45.16;102198.50;4987132;28;99129;-52
2021/03/07 05:43:24;;;;;;;4.70;3.27;;;9.00;77.00;;;11.17;46.01;102201.22;4993149;27;97049;-49
2021/03/07 05:45:51;;;;;;;2.53;2.33;;;8.90;78.60;;;11.24;46.06;102191.44;4988852;27;99542;-53
2021/03/07 05:48:16;;;;;;;3.07;2.70;;;9.40;88.80;;;11.33;46.02;102192.19;4993809;27;99469;-51
2021/03/07 05:50:43;;;;;;;3.47;2.53;;;9.80;87.20;;;11.47;45.55;102186.69;5000867;28;97163;-50
2021/03/07 05:53:11;;;;;;;3.40;3.10;;;10.30;85.50;;;11.59;45.25;102183.88;4991773;27;98457;-49
2021/03/07 05:55:38;;;;;;;4.73;4.10;;;10.50;80.20;;;11.68;43.78;102187.25;5009455;27;98814;-50
2021/03/07 05:58:05;;;;;;;4.73;3.43;;;10.40;73.10;;;11.50;42.36;102180.47;4991202;27;99594;-51
2021/03/07 06:00:32;;;;;;;6.73;4.77;;;9.90;71.50;;;11.40;44.31;102192.06;4992727;27;100121;-51
2021/03/07 06:02:58;;;;;;;5.40;4.90;;;9.50;74.90;;;11.27;44.07;102191.38;4991955;27;97475;-51
2021/03/07 06:05:24;;;;;;;5.30;4.80;;;9.30;74.10;;;10.95;42.72;102182.13;5009087;27;97810;-48
2021/03/07 06:07:50;;;;;;;7.00;5.07;;;8.90;73.40;;;10.85;45.47;102188.44;4968494;28;97492;-50
2021/03/07 06:10:27;;;;;;;8.57;6.00;;;8.70;76.20;;;10.70;45.25;102183.31;4998255;28;97536;-53
2021/03/07 06:13:10;;;;;;;5.83;5.23;;;8.50;75.70;;;10.64;46.36;102183.41;4983707;27;98240;-50
2021/03/07 06:15:38;;;;;;;8.03;6.50;;;8.40;77.50;;;10.51;44.49;102179.16;5014381;27;100080;-48
2021/03/07 06:18:19;;;;;;;6.83;6.13;;;8.30;76.90;;;10.23;45.82;102190.00;5004560;27;97184;-54
2021/03/07 06:20:48;;;;;;;8.60;6.27;;;8.00;77.10;;;10.11;45.71;102195.34;4998176;28;97476;-48
2021/03/07 06:23:14;;;;;;;4.37;3.97;;;7.90;78.20;;;10.14;47.33;102187.44;4992815;27;97350;-48
2021/03/07 06:25:48;;;;;;;3.67;3.37;;;7.90;79.30;;;10.21;47.58;102183.88;5002180;27;99663;-51
2021/03/07 06:28:32;;;;;;;5.20;4.13;;;8.10;80.60;;;10.13;47.10;102190.97;5003320;27;98294;-52
2021/03/07 06:30:58;;;;;;;7.17;4.70;;;7.90;79.20;;;10.03;47.70;102194.56;5000512;27;97818;-51
2021/03/07 06:33:37;;;;;;;5.67;4.87;;;7.80;80.80;;;10.00;46.17;102194.59;4985067;28;104043;-52
2021/03/07 06:36:23;;;;;;;6.60;4.83;;;7.80;79.40;;;9.87;46.74;102196.47;5012286;27;99533;-49
2021/03/07 06:39:04;;;;;;;5.70;4.97;;;7.60;79.30;;;9.71;45.81;102193.09;4987531;28;102024;-52
2021/03/07 06:41:33;;;;;;;6.80;6.03;;;7.40;80.30;;;9.78;46.69;102194.75;5000815;27;96935;-53
2021/03/07 06:44:17;;;;;;;5.63;5.00;;;7.50;79.80;;;9.74;45.98;102189.53;5004304;27;100390;-50
2021/03/07 06:46:48;;;;;;;5.70;4.33;;;7.50;79.60;;;9.77;46.72;102198.28;5014625;27;99680;-49
2021/03/07 06:49:28;;;;;;;4.97;4.17;;;7.50;80.60;;;9.72;47.83;102197.47;4997934;27;99478;-52
2021/03/07 06:52:01;;;;;;;3.67;3.27;;;7.40;80.80;;;9.78;48.56;102197.41;4985441;28;97208;-50
2021/03/07 06:54:29;;;;;;;4.50;3.80;;;7.50;83.00;;;9.84;48.43;102192.09;5000644;27;100324;-50
2021/03/07 06:56:54;;;;;;;4.70;4.30;;;7.60;82.60;;;9.92;47.23;102204.31;5007404;27;97661;-51
2021/03/07 06:59:24;;;;;;;5.27;4.30;;;7.70;81.00;;;9.87;47.34;102196.47;4982088;27;98859;-57
2021/03/07 07:01:53;;;;;;;4.37;3.97;;;7.70;80.30;;;9.88;47.87;102205.25;5017007;27;96854;-50
2021/03/07 07:04:22;;;;;;;4.83;3.77;;;7.70;82.10;;;9.82;48.15;102196.47;4987578;27;97214;-48
2021/03/07 07:07:06;;;;;;;4.37;3.73;;;7.70;80.90;;;9.91;47.96;102202.56;5002147;27;104133;-49
2021/03/07 07:09:32;;;;;;;3.93;3.00;;;7.70;82.50;;;10.09;48.67;102205.03;5002334;27;98729;-52
2021/03/07 07:12:00;;;;;;;4.57;4.17;;;8.00;85.00;;;10.08;46.93;102206.81;4991410;28;97981;-49
2021/03/07 07:14:40;;;;;;;4.83;4.33;;;8.10;80.60;;;10.17;47.92;102205.00;4989099;27;96860;-50
2021/03/07 07:17:11;;;;;;;6.30;5.70;;;8.10;81.10;;;10.14;46.40;102208.53;4993269;28;97486;-50
2021/03/07 07:19:39;;;;;;;5.37;4.70;;;8.10;80.20;;;9.96;44.89;102211.31;4982857;27;99238;-52
2021/03/07 07:22:06;;;;;;;4.23;3.63;;;8.00;81.60;;;10.02;47.96;102212.16;4996300;27;97427;-51
2021/03/07 07:24:33;;;;;;;4.57;4.07;;;7.90;82.60;;;10.15;47.92;102210.28;4993495;27;98559;-49
2021/03/07 07:27:00;;;;;;;5.47;4.23;;;8.00;83.40;;;10.24;46.71;102211.97;4986981;28;100079;-49
2021/03/07 07:29:26;;;;;;;5.23;4.70;;;8.20;81.50;;;10.09;46.03;102205.91;4992406;27;97038;-55
2021/03/07 07:32:14;;;;;;;5.10;4.60;;;8.10;80.90;;;10.17;46.95;102208.50;5007703;27;96795;-48
2021/03/07 07:34:55;;;;;;;5.70;5.20;;;8.00;82.40;;;10.26;46.58;102205.78;4991131;27;97099;-48
2021/03/07 07:37:34;;;;;;;5.47;4.53;;;8.20;81.50;;;10.50;47.87;102206.44;5005468;27;97973;-53
2021/03/07 07:40:01;;;;;;;4.23;3.57;;;8.50;86.20;;;10.69;46.81;102200.06;5007541;27;101702;-51
2021/03/07 07:42:30;;;;;;;7.07;5.60;;;9.00;82.00;;;10.65;46.27;102201.00;4982794;27;99262;-53
2021/03/07 07:45:18;;;;;;;4.73;3.97;;;8.90;79.20;;;10.83;47.13;102200.75;5000456;27;98046;-55
2021/03/07 07:47:52;;;;;;;4.00;3.37;;;9.00;82.60;;;10.98;46.32;102203.19;4983758;27;96846;-53
2021/03/07 07:50:34;;;;;;;3.83;2.90;;;9.40;81.00;;;11.27;46.10;102201.94;5004647;27;97610;-56
2021/03/07 07:53:07;;;;;;;3.73;2.93;;;9.90;90.70;;;11.51;45.56;102201.59;4978560;27;96883;-54
2021/03/07 07:55:54;;;;;;;7.83;5.73;;;10.40;88.30;;;11.53;43.74;102194.50;4991221;27;97323;-52
2021/03/07 07:58:35;;;;;;;4.30;3.60;;;10.30;74.70;;;11.79;44.99;102201.19;4976801;28;97951;-53
2021/03/07 08:01:06;;;;;;;4.93;3.47;;;10.50;88.80;;;11.93;44.63;102201.84;4991704;28;102221;-53
2021/03/07 08:03:35;;;;;;;4.00;3.47;;;10.80;85.40;;;12.13;44.29;102202.38;4988438;28;97644;-52
2021/03/07 08:06:09;;;;;;;8.90;6.77;;;11.20;85.00;;;12.21;43.19;102205.75;4989766;27;97140;-50
2021/03/07 08:08:39;;;;;;;3.37;3.07;;;11.20;74.00;;;12.47;43.52;102199.13;4982782;27;98550;-52
2021/03/07 08:11:07;;;;;;;7.67;6.70;;;11.50;87.00;;;12.52;43.19;102189.31;5008691;27;99498;-53
2021/03/07 08:13:33;;;;;;;18.67;11.10;;;11.60;76.80;;;12.59;39.73;102195.38;4985397;28;100015;-57
2021/03/07 08:16:01;;;;;;;6.47;5.07;;;11.70;74.20;;;12.66;41.95;102187.25;5021704;27;97385;-53
2021/03/07 08:18:49;;;;;;;7.73;6.87;;;11.70;75.60;;;12.41;42.70;102186.00;4985802;28;100689;-52
2021/03/07 08:21:20;;;;;;;3.93;3.50;;;11.20;78.00;;;12.64;42.96;102183.78;5010963;27;101314;-52
2021/03/07 08:24:04;;;;;;;6.27;5.63;;;11.70;81.20;;;12.65;42.03;102180.22;4997718;27;97781;-50
2021/03/07 08:26:45;;;;;;;3.93;3.50;;;11.60;71.40;;;12.56;42.08;102169.81;4992509;27;99280;-55
2021/03/07 08:29:44;;;;;;;11.60;9.50;;;11.30;73.90;;;12.32;40.40;102167.66;4994521;27;101597;-50
2021/03/07 08:32:36;;;;;;;12.27;10.00;;;11.00;70.60;;;11.88;40.94;102170.19;4995449;27;102317;-54
2021/03/07 08:35:24;;;;;;;7.03;6.33;;;10.40;71.70;;;11.79;37.20;102170.34;4992595;28;98132;-53
2021/03/07 08:38:15;;;;;;;13.87;11.50;;;10.20;72.90;;;10.93;35.49;102164.56;5005441;27;106456;-55
2021/03/07 08:40:43;;;;;;;15.67;11.93;;;9.60;73.70;;;10.31;36.39;102159.16;4992909;27;97472;-53
2021/03/07 08:43:22;;;;;;;15.27;12.10;;;9.10;75.00;;;10.27;39.27;102168.00;4984724;27;98410;-56
2021/03/07 08:46:10;;;;;;;15.93;11.50;;;8.90;74.70;;;10.24;40.67;102151.31;4989223;27;97445;-52
2021/03/07 08:48:38;;;;;;;14.43;11.80;;;8.90;78.30;;;9.94;43.79;102163.00;4992398;27;103761;-59
2021/03/07 08:51:07;;;;;;;14.73;12.23;;;8.60;77.20;;;9.42;44.11;102153.78;4991258;27;103377;-55
2021/03/07 08:53:40;;;;;;;6.00;4.77;;;8.30;79.20;;;10.06;45.55;102152.34;4985635;27;98921;-50
2021/03/07 08:56:06;;;;;;;14.37;9.73;;;8.70;82.50;;;9.72;40.72;102146.53;4975059;28;97271;-52
2021/03/07 08:58:32;;;;;;;15.10;11.27;;;8.60;78.60;;;9.52;39.48;102146.66;4980370;27;97199;-52
2021/03/07 09:01:00;;;;;;;15.10;12.17;;;8.50;78.40;;;9.12;39.17;102144.31;4988522;27;99938;-49
2021/03/07 09:03:27;;;;;;;9.67;7.90;;;8.30;78.20;;;9.83;47.82;102153.41;4994847;28;100102;-53
2021/03/07 09:05:55;;;;;;;8.00;5.60;;;8.70;85.10;;;9.64;48.20;102149.19;4993830;27;97955;-49
2021/03/07 09:08:26;;;;;;;15.33;11.87;;;8.60;80.10;;;9.38;38.65;102140.63;5004370;27;96905;-53
2021/03/07 09:11:02;;;;;;;15.33;12.13;;;8.50;77.30;;;9.15;38.51;102136.41;4975327;27;99904;-51
2021/03/07 09:13:30;;;;;;;14.07;11.17;;;8.40;77.00;;;8.79;38.68;102133.97;4984581;28;97500;-51
2021/03/07 09:15:57;;;;;;;13.93;10.63;;;8.20;77.30;;;8.82;47.01;102128.69;4983026;27;99547;-49
2021/03/07 09:18:34;;;;;;;13.17;11.47;;;8.10;80.10;;;8.62;40.66;102132.28;4995737;28;97433;-55
2021/03/07 09:21:11;;;;;;;14.20;11.60;;;8.10;79.10;;;8.46;40.17;102134.97;4999336;27;100398;-51
2021/03/07 09:23:47;;;;;;;15.63;12.87;;;7.90;79.10;;;8.41;42.58;102127.13;4993758;27;99657;-52
2021/03/07 09:26:18;;;;;;;13.80;11.37;;;7.90;80.20;;;8.14;41.00;102127.16;4976331;28;97144;-52
2021/03/07 09:28:53;;;;;;;11.17;9.00;;;7.70;80.40;;;8.64;41.64;102120.00;4992024;28;97268;-51
2021/03/07 09:31:32;;;;;;;12.17;9.50;;;8.10;81.80;;;9.04;41.71;102119.78;4998484;27;98764;-53
2021/03/07 09:34:01;;;;;;;11.37;8.37;;;8.50;83.30;;;8.89;40.14;102119.88;4991052;28;97425;-52
2021/03/07 09:36:29;;;;;;;8.63;7.80;;;8.40;78.10;;;9.40;42.98;102117.78;4974503;27;100470;-52
2021/03/07 09:39:01;;;;;;;6.33;4.60;;;8.60;79.60;;;9.87;48.21;102121.78;4975805;27;98072;-52
2021/03/07 09:41:44;;;;;;;9.50;7.70;;;9.00;85.10;;;10.09;38.11;102112.75;4986478;27;99426;-54
2021/03/07 09:44:16;;;;;;;10.73;7.47;;;9.60;74.80;;;10.09;35.48;102111.00;4968511;27;103971;-56
2021/03/07 09:46:48;;;;;;;12.40;7.73;;;9.70;71.70;;;10.14;36.32;102108.31;4942814;28;97964;-54
2021/03/07 09:49:20;;;;;;;10.73;9.63;;;9.60;74.10;;;10.00;36.67;102099.69;4943724;27;98637;-54
2021/03/07 09:51:49;;;;;;;6.83;5.97;;;9.50;72.90;;;10.29;46.17;102108.19;4956988;27;100255;-50
2021/03/07 09:54:18;;;;;;;9.63;7.67;;;9.50;80.00;;;10.08;36.55;102105.75;4956656;27;99082;-55
2021/03/07 09:56:45;;;;;;;12.57;9.47;;;9.60;73.30;;;9.90;36.89;102103.31;4941643;27;99743;-58
2021/03/07 09:59:26;;;;;;;12.27;10.53;;;9.40;73.10;;;9.82;43.96;102103.34;4965254;27;98447;-54
2021/03/07 10:02:02;;;;;;;11.33;10.10;;;9.20;74.80;;;9.94;46.68;102095.34;4924215;27;99868;-54
2021/03/07 10:04:40;;;;;;;4.13;3.70;;;9.30;79.20;;;10.75;46.26;102097.06;4929096;27;99060;-51
2021/03/07 10:07:13;;;;;;;4.93;3.60;;;9.80;89.60;;;11.67;44.43;102098.28;4876595;27;100807;-56
2021/03/07 10:10:00;;;;;;;5.20;3.93;;;11.20;86.90;;;11.98;38.00;102102.13;4906015;27;98115;-56
2021/03/07 10:12:47;;;;;;;7.87;6.23;;;11.90;74.60;;;12.09;36.76;102099.28;4901330;27;110095;-56
2021/03/07 10:15:24;;;;;;;9.53;7.80;;;12.00;70.00;;;11.64;33.10;102099.19;4891611;28;101447;-54
2021/03/07 10:17:50;;;;;;;10.50;8.83;;;11.50;65.50;;;11.94;43.11;102094.28;4880123;27;100649;-57
2021/03/07 10:20:17;;;;;;;8.93;7.77;;;11.40;83.30;;;12.23;34.15;102091.97;4878219;27;99167;-55
2021/03/07 10:22:47;;;;;;;5.60;3.80;;;12.10;70.10;;;12.26;38.16;102080.44;4882927;28;99702;-53
2021/03/07 10:25:29;;;;;;;10.27;8.57;;;11.90;73.60;;;12.10;35.85;102083.38;4888158;27;101047;-51
2021/03/07 10:28:04;;;;;;;10.97;8.77;;;11.70;68.90;;;12.52;41.91;102086.94;4879566;27;97786;-55
2021/03/07 10:30:35;;;;;;;11.47;6.67;;;11.90;82.30;;;12.93;41.10;102085.16;4952813;27;99257;-55